Time;durP1;ratioP1;P1;durP2;ratioP2;P2;SDS_P1;SDS_P2;PMS_P1;PMS_P2;Temp;Humidity;BMP_temperature;BMP_pressure;BME280_temperature;BME280_humidity;BME280_pressure;Samples;Min_cycle;Max_cycle;Signal;HPM_P1;HPM_P2
2021/03/26 00:00:53;;;;;;;;;;;15.90;57.40;;;;;;4934921;29;20277;-60
2021/03/26 00:03:21;;;;;;;;;;;15.90;57.40;;;;;;4927427;29;19907;-60
2021/03/26 00:05:48;;;;;;;;;;;15.80;57.40;;;;;;4934868;29;19907;-61
2021/03/26 00:08:15;;;;;;;;;;;15.60;57.30;;;;;;4934920;29;19918;-60
2021/03/26 00:10:40;;;;;;;;;;;15.90;57.40;;;;;;4934514;29;19922;-60
2021/03/26 00:13:06;;;;;;;;;;;15.80;57.40;;;;;;4935423;29;19917;-60
2021/03/26 00:15:33;;;;;;;;;;;15.70;57.30;;;;;;4938486;29;20005;-60
2021/03/26 00:17:58;;;;;;;;;;;15.70;57.30;;;;;;4937767;29;19954;-61
2021/03/26 00:20:23;;;;;;;;;;;15.70;57.40;;;;;;4938434;29;20366;-60
2021/03/26 00:22:49;;;;;;;;;;;15.70;57.40;;;;;;4938334;29;20601;-60
2021/03/26 00:25:15;;;;;;;;;;;15.70;57.40;;;;;;4938053;29;19911;-61
2021/03/26 00:27:40;;;;;;;;;;;15.80;57.40;;;;;;4937943;29;19962;-60
2021/03/26 00:30:07;;;;;;;;;;;15.60;57.30;;;;;;4938122;29;19962;-60
2021/03/26 00:32:33;;;;;;;;;;;15.80;57.40;;;;;;4937886;29;20372;-61
2021/03/26 00:34:59;;;;;;;;;;;15.50;57.30;;;;;;4937895;29;19907;-60
2021/03/26 00:37:25;;;;;;;;;;;15.70;57.40;;;;;;4938138;29;20736;-60
2021/03/26 00:39:50;;;;;;;;;;;15.70;57.40;;;;;;4937745;29;19950;-61
2021/03/26 00:42:16;;;;;;;;;;;15.60;57.40;;;;;;4937954;29;20318;-61
2021/03/26 00:44:41;;;;;;;;;;;15.70;57.40;;;;;;4937970;29;19907;-61
2021/03/26 00:47:07;;;;;;;;;;;15.60;57.40;;;;;;4937661;29;19907;-61
2021/03/26 00:49:32;;;;;;;;;;;15.70;57.40;;;;;;4937909;29;19922;-60
2021/03/26 00:51:58;;;;;;;;;;;15.60;57.40;;;;;;4937488;29;19914;-61
2021/03/26 00:54:23;;;;;;;;;;;15.70;57.40;;;;;;4937832;29;20047;-60
2021/03/26 00:56:49;;;;;;;;;;;15.60;57.40;;;;;;4937492;29;20380;-60
2021/03/26 00:59:14;;;;;;;;;;;15.70;57.40;;;;;;4920404;29;19954;-61
2021/03/26 01:01:40;;;;;;;;;;;15.60;57.40;;;;;;4937278;29;19915;-60
2021/03/26 01:04:06;;;;;;;;;;;15.60;57.50;;;;;;4937670;29;19911;-60
2021/03/26 01:06:32;;;;;;;;;;;15.40;57.30;;;;;;4937254;29;19906;-60
2021/03/26 01:08:58;;;;;;;;;;;15.50;57.30;;;;;;4937502;29;19913;-61
2021/03/26 01:11:28;;;;;;;;;;;15.60;57.40;;;;;;4937435;29;20493;-60
2021/03/26 01:13:56;;;;;;;;;;;15.50;57.30;;;;;;4920000;29;19911;-60
2021/03/26 01:16:22;;;;;;;;;;;15.60;57.40;;;;;;4936987;29;19918;-59
2021/03/26 01:18:47;;;;;;;;;;;15.50;57.40;;;;;;4937046;29;19917;-60
2021/03/26 01:21:15;;;;;;;;;;;15.50;58.00;;;;;;4937051;29;19906;-60
2021/03/26 01:23:41;;;;;;;;;;;15.60;57.40;;;;;;4936946;29;19937;-60
2021/03/26 01:26:07;;;;;;;;;;;15.60;57.40;;;;;;4936592;29;19907;-60
2021/03/26 01:28:32;;;;;;;;;;;15.50;57.40;;;;;;4937103;29;20231;-60
2021/03/26 01:30:58;;;;;;;;;;;15.50;57.40;;;;;;4936756;29;19914;-61
2021/03/26 01:33:24;;;;;;;;;;;15.50;57.40;;;;;;4936817;29;19922;-61
2021/03/26 01:35:50;;;;;;;;;;;15.50;57.40;;;;;;4937024;29;20005;-60
2021/03/26 01:38:16;;;;;;;;;;;15.40;57.30;;;;;;4936674;29;19918;-61
2021/03/26 01:40:43;;;;;;;;;;;15.60;57.50;;;;;;4919872;29;19907;-61
2021/03/26 01:43:16;;;;;;;;;;;15.40;57.30;;;;;;4936866;29;19907;-60
2021/03/26 01:45:42;;;;;;;;;;;15.50;57.30;;;;;;4936787;29;20255;-61
2021/03/26 01:48:09;;;;;;;;;;;15.50;57.40;;;;;;4936499;29;19953;-60
2021/03/26 01:50:35;;;;;;;;;;;15.30;57.30;;;;;;4936656;29;19970;-60
2021/03/26 01:53:01;;;;;;;;;;;15.20;57.30;;;;;;4936731;29;19914;-60
2021/03/26 01:55:29;;;;;;;;;;;15.40;57.30;;;;;;4936707;29;19962;-61
2021/03/26 01:57:55;;;;;;;;;;;15.40;57.30;;;;;;4936681;29;19914;-60
2021/03/26 02:00:27;;;;;;;;;;;15.30;57.30;;;;;;4936443;29;19915;-60
2021/03/26 02:02:53;;;;;;;;;;;15.40;57.40;;;;;;4936150;29;20005;-60
2021/03/26 02:05:21;;;;;;;;;;;15.30;57.30;;;;;;4936354;29;19934;-60
2021/03/26 02:07:47;;;;;;;;;;;15.30;57.30;;;;;;4936508;29;19907;-60
2021/03/26 02:10:19;;;;;;;;;;;15.90;57.70;;;;;;4936045;29;20030;-60
2021/03/26 02:12:55;;;;;;;;;;;15.40;57.40;;;;;;4935844;29;19911;-60
2021/03/26 02:15:26;;;;;;;;;;;15.40;57.40;;;;;;4936288;29;19925;-60
2021/03/26 02:17:52;;;;;;;;;;;15.20;57.40;;;;;;4935433;28;19950;-60
2021/03/26 02:20:17;;;;;;;;;;;15.10;57.30;;;;;;4935977;29;20012;-60
2021/03/26 02:22:43;;;;;;;;;;;15.40;57.50;;;;;;4936191;29;19907;-60
2021/03/26 02:25:10;;;;;;;;;;;15.20;57.40;;;;;;4935857;29;19914;-60
2021/03/26 02:27:37;;;;;;;;;;;15.40;57.50;;;;;;4935805;29;19957;-61
2021/03/26 02:30:20;;;;;;;;;;;15.30;57.50;;;;;;4935571;29;20001;-59
2021/03/26 02:32:46;;;;;;;;;;;15.40;57.50;;;;;;4936095;29;20042;-60
2021/03/26 02:35:18;;;;;;;;;;;15.30;57.50;;;;;;4935946;29;19938;-60
2021/03/26 02:37:48;;;;;;;;;;;15.30;57.50;;;;;;4934934;29;20001;-59
2021/03/26 02:40:20;;;;;;;;;;;15.30;58.20;;;;;;4935522;29;20361;-60
2021/03/26 02:42:48;;;;;;;;;;;15.10;58.10;;;;;;4935706;29;19911;-60
2021/03/26 02:45:20;;;;;;;;;;;15.20;57.50;;;;;;4935792;29;19915;-60
2021/03/26 02:47:48;;;;;;;;;;;15.10;57.50;;;;;;4935585;29;19962;-60
2021/03/26 02:50:16;;;;;;;;;;;15.30;57.70;;;;;;4935597;29;19925;-61
2021/03/26 02:52:41;;;;;;;;;;;15.80;57.90;;;;;;4935444;29;19907;-60
2021/03/26 02:55:27;;;;;;;;;;;15.90;58.00;;;;;;4935664;29;19907;-60
2021/03/26 02:57:56;;;;;;;;;;;15.30;57.70;;;;;;4928067;29;20377;-60
2021/03/26 03:00:22;;;;;;;;;;;15.20;57.70;;;;;;4935574;29;19906;-60
2021/03/26 03:02:50;;;;;;;;;;;15.90;58.10;;;;;;4935518;29;19929;-60
2021/03/26 03:05:23;;;;;;;;;;;15.30;57.80;;;;;;4935360;29;19994;-60
2021/03/26 03:07:52;;;;;;;;;;;15.30;57.70;;;;;;4935486;29;19906;-60
2021/03/26 03:10:21;;;;;;;;;;;15.20;57.70;;;;;;4935164;29;20382;-60
2021/03/26 03:12:48;;;;;;;;;;;15.10;57.70;;;;;;4935100;29;19911;-60
2021/03/26 03:15:16;;;;;;;;;;;15.20;57.80;;;;;;4935456;29;20262;-60
2021/03/26 03:17:44;;;;;;;;;;;15.20;57.70;;;;;;4934725;28;20362;-59
2021/03/26 03:20:22;;;;;;;;;;;15.20;57.90;;;;;;4935448;29;20030;-60
2021/03/26 03:22:54;;;;;;;;;;;15.20;57.80;;;;;;4935355;29;20278;-60
2021/03/26 03:25:21;;;;;;;;;;;15.20;57.80;;;;;;4935149;29;20413;-60
2021/03/26 03:28:05;;;;;;;;;;;15.20;57.90;;;;;;4935293;29;19969;-60
2021/03/26 03:30:43;;;;;;;;;;;15.20;57.80;;;;;;4934909;29;20385;-60
2021/03/26 03:33:22;;;;;;;;;;;15.20;57.90;;;;;;4935336;29;19907;-60
2021/03/26 03:35:51;;;;;;;;;;;15.20;57.90;;;;;;4935056;29;20354;-60
2021/03/26 03:38:25;;;;;;;;;;;15.10;57.90;;;;;;4935205;29;20306;-60
2021/03/26 03:40:50;;;;;;;;;;;15.00;57.90;;;;;;4935206;29;19962;-60
2021/03/26 03:43:36;;;;;;;;;;;15.10;58.00;;;;;;4935211;29;19910;-60
2021/03/26 03:46:22;;;;;;;;;;;15.10;58.00;;;;;;4927656;29;19910;-61
2021/03/26 03:48:48;;;;;;;;;;;15.20;58.00;;;;;;4918303;29;19918;-60
2021/03/26 03:51:18;;;;;;;;;;;15.10;58.00;;;;;;4919948;29;20274;-60
2021/03/26 03:53:49;;;;;;;;;;;15.20;58.00;;;;;;4919670;29;19914;-60
2021/03/26 03:56:26;;;;;;;;;;;14.90;58.00;;;;;;4919986;29;19907;-60
2021/03/26 03:59:11;;;;;;;;;;;15.10;58.00;;;;;;4919706;29;19911;-60
2021/03/26 04:01:43;;;;;;;;;;;15.10;58.00;;;;;;4919885;29;19958;-60
2021/03/26 04:04:15;;;;;;;;;;;15.10;58.00;;;;;;4919575;29;20055;-60
2021/03/26 04:06:47;;;;;;;;;;;15.10;58.10;;;;;;4919755;29;19920;-60
2021/03/26 04:09:14;;;;;;;;;;;15.10;58.10;;;;;;4919432;29;20350;-59
2021/03/26 04:11:40;;;;;;;;;;;15.10;58.10;;;;;;4919454;29;19915;-60
2021/03/26 04:14:15;;;;;;;;;;;15.10;58.20;;;;;;4919572;29;20362;-60
2021/03/26 04:16:42;;;;;;;;;;;15.10;58.10;;;;;;4919715;29;19907;-56
2021/03/26 04:19:16;;;;;;;;;;;15.00;58.10;;;;;;4919446;29;19950;-60
2021/03/26 04:21:43;;;;;;;;;;;15.10;58.10;;;;;;4919091;29;19907;-60
2021/03/26 04:24:09;;;;;;;;;;;14.90;58.10;;;;;;4919405;29;19907;-60
2021/03/26 04:26:42;;;;;;;;;;;15.10;58.20;;;;;;4919127;29;19966;-60
2021/03/26 04:29:10;;;;;;;;;;;15.10;58.20;;;;;;4919100;29;19911;-60
2021/03/26 04:31:41;;;;;;;;;;;15.00;58.20;;;;;;4919214;29;19915;-60
2021/03/26 04:34:08;;;;;;;;;;;15.00;58.10;;;;;;4918880;29;19954;-60
2021/03/26 04:36:46;;;;;;;;;;;15.00;58.20;;;;;;4918874;29;19907;-60
2021/03/26 04:39:21;;;;;;;;;;;15.00;58.20;;;;;;4919038;29;19907;-60
2021/03/26 04:41:52;;;;;;;;;;;15.00;58.20;;;;;;4919141;29;19907;-60
2021/03/26 04:44:22;;;;;;;;;;;14.90;58.20;;;;;;4919065;29;19993;-61
2021/03/26 04:46:56;;;;;;;;;;;15.00;58.20;;;;;;4925111;29;20029;-59
2021/03/26 04:49:25;;;;;;;;;;;15.00;58.20;;;;;;4919051;29;19911;-60
2021/03/26 04:52:01;;;;;;;;;;;15.00;58.20;;;;;;4918543;29;20120;-60
2021/03/26 04:54:30;;;;;;;;;;;15.00;58.20;;;;;;4918845;29;20274;-61
2021/03/26 04:56:56;;;;;;;;;;;15.00;58.90;;;;;;4918751;29;19906;-61
2021/03/26 04:59:35;;;;;;;;;;;14.70;58.10;;;;;;4918011;29;19914;-60
2021/03/26 05:02:02;;;;;;;;;;;14.90;58.30;;;;;;4918505;29;19926;-60
2021/03/26 05:04:30;;;;;;;;;;;15.00;58.30;;;;;;4918519;29;19907;-60
2021/03/26 05:07:00;;;;;;;;;;;15.00;58.30;;;;;;4918559;29;19918;-59
2021/03/26 05:09:28;;;;;;;;;;;15.00;58.30;;;;;;4918506;29;19911;-60
2021/03/26 05:11:57;;;;;;;;;;;14.90;58.30;;;;;;4918360;29;19915;-60
2021/03/26 05:14:25;;;;;;;;;;;15.00;58.40;;;;;;4918158;29;20056;-60
2021/03/26 05:16:57;;;;;;;;;;;14.90;58.40;;;;;;4918614;29;19922;-59
2021/03/26 05:19:36;;;;;;;;;;;15.00;58.30;;;;;;4918141;29;19911;-60
2021/03/26 05:22:14;;;;;;;;;;;14.90;58.30;;;;;;4918267;29;19914;-60
2021/03/26 05:24:43;;;;;;;;;;;14.90;58.30;;;;;;4917946;29;20001;-61
2021/03/26 05:27:11;;;;;;;;;;;14.70;58.30;;;;;;4918262;29;19907;-60
2021/03/26 05:29:37;;;;;;;;;;;14.80;58.40;;;;;;4936810;29;20005;-60
2021/03/26 05:32:02;;;;;;;;;;;14.80;58.40;;;;;;4937021;29;20430;-60
2021/03/26 05:34:31;;;;;;;;;;;14.90;58.40;;;;;;4937080;29;19906;-60
2021/03/26 05:36:56;;;;;;;;;;;14.80;58.40;;;;;;4937040;29;19910;-60
2021/03/26 05:39:24;;;;;;;;;;;14.80;58.40;;;;;;4936871;29;20327;-60
2021/03/26 05:42:05;;;;;;;;;;;14.90;58.50;;;;;;4936903;29;19910;-59
2021/03/26 05:44:49;;;;;;;;;;;14.90;58.40;;;;;;4936610;29;19915;-60
2021/03/26 05:47:29;;;;;;;;;;;14.90;58.40;;;;;;4936827;29;19911;-60
2021/03/26 05:49:58;;;;;;;;;;;14.90;58.50;;;;;;4936697;29;19969;-60
2021/03/26 05:52:34;;;;;;;;;;;14.80;58.40;;;;;;4936665;29;19919;-60
2021/03/26 05:55:18;;;;;;;;;;;14.90;58.50;;;;;;4936488;29;20392;-59
2021/03/26 05:58:13;;;;;;;;;;;14.80;59.00;;;;;;4936543;29;19949;-60
2021/03/26 06:00:41;;;;;;;;;;;14.90;59.10;;;;;;4900660;29;19913;-60
2021/03/26 06:03:20;;;;;;;;;;;14.90;58.50;;;;;;4936233;29;20001;-60
2021/03/26 06:05:57;;;;;;;;;;;14.80;58.50;;;;;;4936446;29;19906;-60
2021/03/26 06:08:30;;;;;;;;;;;14.80;58.50;;;;;;4936225;29;19910;-60
2021/03/26 06:11:01;;;;;;;;;;;14.80;58.60;;;;;;4936230;29;19922;-60
2021/03/26 06:13:41;;;;;;;;;;;14.80;58.60;;;;;;4936387;29;20277;-59
2021/03/26 06:16:18;;;;;;;;;;;14.80;58.50;;;;;;4936312;29;19910;-60
2021/03/26 06:19:03;;;;;;;;;;;14.90;58.50;;;;;;4935578;28;19918;-60
2021/03/26 06:21:34;;;;;;;;;;;14.90;58.60;;;;;;4936234;29;19910;-60
2021/03/26 06:24:11;;;;;;;;;;;14.80;58.60;;;;;;4936186;29;20317;-59
2021/03/26 06:26:37;;;;;;;;;;;14.80;58.50;;;;;;4936220;29;20000;-59
2021/03/26 06:29:17;;;;;;;;;;;14.60;58.50;;;;;;4936129;29;19910;-60
2021/03/26 06:31:46;;;;;;;;;;;14.80;58.50;;;;;;4935730;29;20006;-59
2021/03/26 06:34:22;;;;;;;;;;;14.80;58.50;;;;;;4935851;29;19918;-60
2021/03/26 06:37:11;;;;;;;;;;;14.80;58.50;;;;;;4935808;29;19907;-59
2021/03/26 06:39:43;;;;;;;;;;;14.80;58.60;;;;;;4935728;29;20054;-59
2021/03/26 06:42:11;;;;;;;;;;;14.80;58.60;;;;;;4935593;29;20273;-61
2021/03/26 06:44:40;;;;;;;;;;;14.80;58.60;;;;;;4935289;29;19918;-60
2021/03/26 06:47:13;;;;;;;;;;;14.90;58.60;;;;;;4935576;29;20267;-60
2021/03/26 06:49:57;;;;;;;;;;;14.90;58.80;;;;;;4935303;29;19907;-60
2021/03/26 06:52:25;;;;;;;;;;;14.90;59.00;;;;;;4935295;29;19962;-60
2021/03/26 06:55:09;;;;;;;;;;;14.90;58.90;;;;;;4935616;29;19911;-60
2021/03/26 06:57:50;;;;;;;;;;;14.90;59.10;;;;;;4935219;29;19907;-59
2021/03/26 07:00:15;;;;;;;;;;;14.90;59.20;;;;;;4934090;29;20325;-59
2021/03/26 07:02:46;;;;;;;;;;;14.90;59.20;;;;;;4934855;29;19915;-59
2021/03/26 07:05:12;;;;;;;;;;;14.90;59.20;;;;;;4935200;29;19907;-59
2021/03/26 07:07:56;;;;;;;;;;;14.90;59.30;;;;;;4935581;29;19953;-60
2021/03/26 07:10:31;;;;;;;;;;;15.00;59.60;;;;;;4917824;29;20006;-59
2021/03/26 07:12:59;;;;;;;;;;;15.00;59.70;;;;;;4935017;29;20374;-59
2021/03/26 07:15:54;;;;;;;;;;;15.00;59.60;;;;;;4935047;29;19907;-56
2021/03/26 07:18:20;;;;;;;;;;;15.00;59.40;;;;;;4884476;29;19967;-55
2021/03/26 07:21:09;;;;;;;;;;;15.50;60.00;;;;;;4933889;29;19945;-57
2021/03/26 07:23:48;;;;;;;;;;;15.20;60.70;;;;;;4932997;29;20426;-56
2021/03/26 07:26:19;;;;;;;;;;;15.20;60.40;;;;;;4933510;29;20238;-56
2021/03/26 07:28:45;;;;;;;;;;;15.20;60.20;;;;;;4934572;29;19914;-56
2021/03/26 07:31:29;;;;;;;;;;;15.20;60.20;;;;;;4935232;29;19918;-56
2021/03/26 07:34:00;;;;;;;;;;;15.30;60.00;;;;;;4935045;29;19907;-55
2021/03/26 07:36:52;;;;;;;;;;;15.30;60.00;;;;;;4933861;29;19907;-56
2021/03/26 07:39:36;;;;;;;;;;;15.30;59.90;;;;;;4912100;29;19907;-55
2021/03/26 07:42:16;;;;;;;;;;;15.30;59.80;;;;;;4935036;29;20009;-55
2021/03/26 07:44:41;;;;;;;;;;;15.40;59.80;;;;;;4917887;29;19910;-56
2021/03/26 07:47:17;;;;;;;;;;;15.40;59.70;;;;;;4917673;29;19907;-53
2021/03/26 07:49:52;;;;;;;;;;;15.40;59.60;;;;;;4934638;29;20353;-55
2021/03/26 07:52:36;;;;;;;;;;;15.50;59.50;;;;;;4934237;29;19921;-56
2021/03/26 07:55:05;;;;;;;;;;;15.50;59.50;;;;;;4934408;29;19907;-56
2021/03/26 07:57:39;;;;;;;;;;;15.50;59.40;;;;;;4935287;29;19911;-56
2021/03/26 08:00:23;;;;;;;;;;;15.60;60.00;;;;;;4934669;29;19907;-56
2021/03/26 08:03:01;;;;;;;;;;;15.60;59.30;;;;;;4934855;29;19911;-56
2021/03/26 08:05:29;;;;;;;;;;;15.60;59.20;;;;;;4932384;29;20329;-55
2021/03/26 08:08:03;;;;;;;;;;;15.70;59.20;;;;;;4915609;29;19907;-56
2021/03/26 08:10:37;;;;;;;;;;;15.70;59.10;;;;;;4915549;29;20005;-56
2021/03/26 08:13:14;;;;;;;;;;;15.80;59.10;;;;;;4915529;29;19907;-55
2021/03/26 08:15:46;;;;;;;;;;;15.80;59.10;;;;;;4915857;29;19950;-55
2021/03/26 08:18:40;;;;;;;;;;;15.90;59.00;;;;;;4915544;29;20295;-56
2021/03/26 08:21:21;;;;;;;;;;;15.90;58.80;;;;;;4902674;29;19907;-55
2021/03/26 08:24:05;;;;;;;;;;;15.90;58.70;;;;;;4915446;29;19911;-56
2021/03/26 08:26:49;;;;;;;;;;;16.00;58.60;;;;;;4915780;29;19911;-55
2021/03/26 08:29:25;;;;;;;;;;;16.00;58.50;;;;;;4915540;29;19923;-56
2021/03/26 08:32:17;;;;;;;;;;;15.90;58.40;;;;;;4898562;29;20029;-55
2021/03/26 08:34:55;;;;;;;;;;;16.10;58.40;;;;;;4893546;29;20247;-55
2021/03/26 08:37:29;;;;;;;;;;;16.20;58.30;;;;;;4901925;29;20390;-55
2021/03/26 08:39:57;;;;;;;;;;;16.20;58.20;;;;;;4918732;29;19957;-56
2021/03/26 08:42:41;;;;;;;;;;;16.30;58.20;;;;;;4918991;29;19907;-54
2021/03/26 08:45:09;;;;;;;;;;;16.30;58.10;;;;;;4918640;29;19950;-55
2021/03/26 08:47:37;;;;;;;;;;;16.40;58.00;;;;;;4918640;29;20319;-56
2021/03/26 08:50:22;;;;;;;;;;;16.60;58.00;;;;;;4919184;29;19914;-55
2021/03/26 08:53:03;;;;;;;;;;;16.40;57.80;;;;;;4917961;29;19963;-56
2021/03/26 08:55:40;;;;;;;;;;;16.50;57.60;;;;;;4918765;29;20006;-56
2021/03/26 08:58:24;;;;;;;;;;;16.50;57.60;;;;;;4918695;29;19907;-57
2021/03/26 09:01:08;;;;;;;;;;;16.60;57.50;;;;;;4918486;29;19966;-56
2021/03/26 09:03:39;;;;;;;;;;;16.70;57.50;;;;;;4918007;29;20378;-54
2021/03/26 09:06:13;;;;;;;;;;;16.70;57.30;;;;;;4918364;29;19907;-55
2021/03/26 09:08:43;;;;;;;;;;;16.70;57.10;;;;;;4924650;29;19930;-56
2021/03/26 09:11:27;;;;;;;;;;;16.70;57.10;;;;;;4918243;29;19915;-56
2021/03/26 09:14:12;;;;;;;;;;;16.80;57.00;;;;;;4918222;29;19907;-56
2021/03/26 09:16:40;;;;;;;;;;;16.90;56.90;;;;;;4918068;29;20445;-53
2021/03/26 09:19:05;;;;;;;;;;;16.90;56.90;;;;;;4918383;29;19926;-55
2021/03/26 09:21:49;;;;;;;;;;;16.90;56.80;;;;;;4918391;29;20278;-56
2021/03/26 09:24:35;;;;;;;;;;;17.00;56.70;;;;;;4918063;29;19907;-55
2021/03/26 09:27:06;;;;;;;;;;;17.00;56.50;;;;;;4918094;29;20350;-55
2021/03/26 09:29:55;;;;;;;;;;;17.00;56.50;;;;;;4916682;29;19950;-55
2021/03/26 09:32:24;;;;;;;;;;;17.10;56.40;;;;;;4917566;29;19919;-57
2021/03/26 09:34:58;;;;;;;;;;;17.00;56.20;;;;;;4918069;29;19941;-56
2021/03/26 09:37:27;;;;;;;;;;;17.00;56.20;;;;;;4900815;29;20421;-57
2021/03/26 09:39:58;;;;;;;;;;;17.20;56.20;;;;;;4917355;29;19962;-56
2021/03/26 09:42:29;;;;;;;;;;;17.30;56.10;;;;;;4924805;29;19907;-55
2021/03/26 09:44:57;;;;;;;;;;;17.30;55.90;;;;;;4936732;29;20313;-55
2021/03/26 09:47:32;;;;;;;;;;;17.40;55.80;;;;;;4935780;29;19906;-56
2021/03/26 09:50:14;;;;;;;;;;;17.40;55.70;;;;;;4936554;29;20005;-55
2021/03/26 09:52:42;;;;;;;;;;;17.40;55.60;;;;;;4936294;29;19914;-56
2021/03/26 09:55:10;;;;;;;;;;;17.50;55.60;;;;;;4936583;29;19907;-55
2021/03/26 09:57:43;;;;;;;;;;;17.50;55.60;;;;;;4936618;29;19907;-55
2021/03/26 10:00:14;;;;;;;;;;;17.30;55.40;;;;;;4936411;29;19906;-53
2021/03/26 10:03:00;;;;;;;;;;;17.60;55.40;;;;;;4936462;29;19907;-55
2021/03/26 10:05:41;;;;;;;;;;;17.40;55.20;;;;;;4928961;29;19907;-54
2021/03/26 10:11:03;;;;;;;;;;;17.70;55.10;;;;;;4942742;29;19961;-55
2021/03/26 10:13:28;;;;;;;;;;;17.60;55.00;;;;;;4936066;29;19997;-55
2021/03/26 10:16:02;;;;;;;;;;;17.60;54.80;;;;;;4936343;29;20017;-55
2021/03/26 10:18:37;;;;;;;;;;;17.70;54.80;;;;;;4934545;29;19924;-55
2021/03/26 10:21:02;;;;;;;;;;;17.80;54.60;;;;;;4918714;29;20014;-54
2021/03/26 10:23:42;;;;;;;;;;;17.60;54.50;;;;;;4918679;29;20342;-53
2021/03/26 10:26:26;;;;;;;;;;;17.80;54.60;;;;;;4935885;29;19957;-54
2021/03/26 10:28:57;;;;;;;;;;;17.80;54.40;;;;;;4917120;29;19911;-56
2021/03/26 10:31:29;;;;;;;;;;;17.80;54.30;;;;;;4916642;29;20441;-55
2021/03/26 10:33:56;;;;;;;;;;;17.80;54.20;;;;;;4916984;29;20269;-54
2021/03/26 10:36:38;;;;;;;;;;;17.60;54.20;;;;;;4917061;29;19917;-55
2021/03/26 10:39:06;;;;;;;;;;;17.80;54.30;;;;;;4899665;29;19907;-56
2021/03/26 10:41:47;;;;;;;;;;;17.80;54.30;;;;;;4916769;29;19911;-54
2021/03/26 10:44:31;;;;;;;;;;;17.80;54.10;;;;;;4916891;29;20277;-56
2021/03/26 10:47:12;;;;;;;;;;;17.80;54.00;;;;;;4916397;29;19911;-55
2021/03/26 10:49:43;;;;;;;;;;;17.90;54.10;;;;;;4916639;29;19918;-55
2021/03/26 10:52:19;;;;;;;;;;;17.80;53.90;;;;;;4916345;29;19970;-56
2021/03/26 10:54:44;;;;;;;;;;;17.90;54.00;;;;;;4916577;29;19907;-56
2021/03/26 10:57:17;;;;;;;;;;;17.90;53.90;;;;;;4915959;29;19917;-54
2021/03/26 10:59:43;;;;;;;;;;;17.90;53.90;;;;;;4916178;29;20047;-54
2021/03/26 11:02:27;;;;;;;;;;;18.40;54.10;;;;;;4916316;29;20346;-56
2021/03/26 11:04:57;;;;;;;;;;;18.00;53.60;;;;;;4916305;29;20278;-56
2021/03/26 11:07:24;;;;;;;;;;;18.10;53.60;;;;;;4916466;29;19955;-56
2021/03/26 11:09:54;;;;;;;;;;;18.00;53.40;;;;;;4916461;29;19911;-55
2021/03/26 11:12:20;;;;;;;;;;;17.90;53.30;;;;;;4916327;29;20345;-55
2021/03/26 11:15:04;;;;;;;;;;;18.10;53.40;;;;;;4916159;29;20282;-54
2021/03/26 11:17:39;;;;;;;;;;;18.10;53.30;;;;;;4916178;29;19907;-55
2021/03/26 11:20:24;;;;;;;;;;;18.10;53.20;;;;;;4916104;29;19918;-55
2021/03/26 11:22:52;;;;;;;;;;;18.10;53.20;;;;;;4916139;29;19911;-55
2021/03/26 11:25:25;;;;;;;;;;;18.10;53.10;;;;;;4898916;29;20006;-57
2021/03/26 11:27:53;;;;;;;;;;;18.20;53.00;;;;;;4915960;29;19911;-57
2021/03/26 11:30:30;;;;;;;;;;;18.20;53.00;;;;;;4915987;29;19911;-57
2021/03/26 11:32:59;;;;;;;;;;;18.20;52.80;;;;;;4916029;29;20486;-56
2021/03/26 11:35:26;;;;;;;;;;;18.80;53.20;;;;;;4916157;29;19907;-56
2021/03/26 11:37:55;;;;;;;;;;;18.10;52.80;;;;;;4916057;29;19964;-57
2021/03/26 11:40:42;;;;;;;;;;;18.30;52.80;;;;;;4915893;29;19911;-56
2021/03/26 11:43:26;;;;;;;;;;;18.30;52.90;;;;;;4915852;29;20430;-57
2021/03/26 11:45:54;;;;;;;;;;;18.30;52.80;;;;;;4915838;29;19946;-55
2021/03/26 11:48:38;;;;;;;;;;;18.30;52.80;;;;;;4915864;29;19954;-57
2021/03/26 11:51:11;;;;;;;;;;;18.30;52.70;;;;;;4915986;29;19915;-57
2021/03/26 11:53:55;;;;;;;;;;;18.30;52.60;;;;;;4915299;29;19911;-56
2021/03/26 11:56:24;;;;;;;;;;;18.30;52.60;;;;;;4915781;29;19918;-57
2021/03/26 11:59:08;;;;;;;;;;;18.30;52.40;;;;;;4915581;29;19915;-56
2021/03/26 12:01:38;;;;;;;;;;;18.30;52.50;;;;;;4914489;29;19907;-58
2021/03/26 12:04:07;;;;;;;;;;;18.30;52.50;;;;;;4915786;29;19929;-57
2021/03/26 12:06:41;;;;;;;;;;;18.20;52.50;;;;;;4915641;29;19907;-58
2021/03/26 12:09:24;;;;;;;;;;;18.30;52.50;;;;;;4916591;29;19914;-57
2021/03/26 12:11:52;;;;;;;;;;;18.30;52.40;;;;;;4919544;29;19938;-57
2021/03/26 12:14:22;;;;;;;;;;;18.30;52.50;;;;;;4919524;29;19989;-58
2021/03/26 12:16:53;;;;;;;;;;;18.00;52.40;;;;;;4919544;29;19918;-58
2021/03/26 12:19:20;;;;;;;;;;;18.20;52.60;;;;;;4919344;29;19919;-57
2021/03/26 12:22:02;;;;;;;;;;;18.30;52.70;;;;;;4902264;29;19914;-58
2021/03/26 12:24:38;;;;;;;;;;;18.20;52.70;;;;;;4919455;29;19911;-56
2021/03/26 12:27:14;;;;;;;;;;;18.20;52.70;;;;;;4919386;29;19907;-56
2021/03/26 12:29:48;;;;;;;;;;;18.10;52.70;;;;;;4919420;29;19907;-56
2021/03/26 12:32:34;;;;;;;;;;;18.10;52.80;;;;;;4919355;29;20031;-56
2021/03/26 12:35:03;;;;;;;;;;;18.10;52.80;;;;;;4918869;29;19907;-55
2021/03/26 12:37:44;;;;;;;;;;;18.40;53.00;;;;;;4919018;29;19911;-55
2021/03/26 12:40:22;;;;;;;;;;;18.10;52.80;;;;;;4918901;29;19908;-55
2021/03/26 12:42:52;;;;;;;;;;;18.10;52.90;;;;;;4918651;29;19940;-55
2021/03/26 12:45:17;;;;;;;;;;;17.70;52.70;;;;;;4918624;29;20367;-56
2021/03/26 12:47:46;;;;;;;;;;;17.70;52.80;;;;;;4918900;29;19913;-56
2021/03/26 12:50:20;;;;;;;;;;;17.70;52.80;;;;;;4918788;29;19911;-56
2021/03/26 12:53:02;;;;;;;;;;;17.90;52.90;;;;;;4918714;29;20282;-56
2021/03/26 12:55:37;;;;;;;;;;;17.90;53.70;;;;;;4918459;29;20442;-57
2021/03/26 12:58:15;;;;;;;;;;;17.90;53.20;;;;;;4918606;29;19922;-55
2021/03/26 13:00:50;;;;;;;;;;;17.90;53.20;;;;;;4918365;29;19911;-57
2021/03/26 13:03:32;;;;;;;;;;;17.80;53.10;;;;;;4918409;29;19907;-55
2021/03/26 13:06:01;;;;;;;;;;;17.80;53.20;;;;;;4918272;29;19918;-56
2021/03/26 13:08:29;;;;;;;;;;;17.80;53.20;;;;;;4918469;29;19911;-56
2021/03/26 13:10:55;;;;;;;;;;;17.60;53.10;;;;;;4918340;29;20013;-56
2021/03/26 13:13:49;;;;;;;;;;;17.60;53.20;;;;;;4918412;29;20010;-56
2021/03/26 13:16:44;;;;;;;;;;;17.70;53.20;;;;;;4897978;29;19907;-56
2021/03/26 13:19:24;;;;;;;;;;;17.70;53.30;;;;;;4876567;29;19961;-57
2021/03/26 13:21:59;;;;;;;;;;;17.70;53.40;;;;;;4898347;29;19919;-56
2021/03/26 13:24:25;;;;;;;;;;;17.70;53.40;;;;;;4899264;29;19913;-56
2021/03/26 13:27:09;;;;;;;;;;;17.50;53.40;;;;;;4899351;29;19994;-57
2021/03/26 13:29:34;;;;;;;;;;;18.00;53.70;;;;;;4866697;29;19907;-56
2021/03/26 13:32:01;;;;;;;;;;;17.50;53.50;;;;;;4899217;29;19919;-56
2021/03/26 13:34:36;;;;;;;;;;;17.50;53.60;;;;;;4899005;29;20021;-55
2021/03/26 13:37:09;;;;;;;;;;;17.60;53.60;;;;;;4898982;29;19962;-56
2021/03/26 13:39:35;;;;;;;;;;;17.60;53.70;;;;;;4882020;29;19908;-56
2021/03/26 13:42:09;;;;;;;;;;;17.40;53.60;;;;;;4899033;29;19966;-56
2021/03/26 13:44:50;;;;;;;;;;;17.50;53.70;;;;;;4899011;29;19907;-57
2021/03/26 13:47:16;;;;;;;;;;;17.50;53.70;;;;;;4898954;29;20283;-57
2021/03/26 13:49:49;;;;;;;;;;;17.50;53.80;;;;;;4898681;29;19907;-57
2021/03/26 13:52:23;;;;;;;;;;;17.50;54.50;;;;;;4898801;29;19975;-57
2021/03/26 13:54:49;;;;;;;;;;;17.50;53.90;;;;;;4898594;29;19911;-57
2021/03/26 13:57:24;;;;;;;;;;;17.50;54.10;;;;;;4898139;29;19907;-57
2021/03/26 13:59:52;;;;;;;;;;;17.50;53.90;;;;;;4898239;29;19912;-56
2021/03/26 14:02:23;;;;;;;;;;;17.20;54.00;;;;;;4898703;29;19911;-57
2021/03/26 14:05:00;;;;;;;;;;;17.40;54.20;;;;;;4898688;29;20248;-57
2021/03/26 14:07:30;;;;;;;;;;;17.40;54.20;;;;;;4897849;29;19907;-56
2021/03/26 14:09:57;;;;;;;;;;;17.40;54.20;;;;;;4898593;29;19914;-56
2021/03/26 14:12:26;;;;;;;;;;;17.20;54.10;;;;;;4898526;29;19923;-56
2021/03/26 14:15:02;;;;;;;;;;;17.30;54.20;;;;;;4898484;29;19908;-55
2021/03/26 14:17:33;;;;;;;;;;;17.30;54.10;;;;;;4898440;29;19911;-57
2021/03/26 14:20:05;;;;;;;;;;;17.30;54.00;;;;;;4898575;29;19919;-57
2021/03/26 14:22:48;;;;;;;;;;;17.30;54.70;;;;;;4898080;29;20028;-58
2021/03/26 14:25:39;;;;;;;;;;;17.30;54.70;;;;;;4898095;29;19915;-57
2021/03/26 14:28:08;;;;;;;;;;;17.30;54.70;;;;;;4898000;29;19918;-57
2021/03/26 14:30:37;;;;;;;;;;;17.40;54.70;;;;;;4897826;29;19907;-58
2021/03/26 14:33:20;;;;;;;;;;;17.30;54.40;;;;;;4898114;29;19911;-58
2021/03/26 14:35:48;;;;;;;;;;;17.30;54.40;;;;;;4880952;29;19907;-57
2021/03/26 14:38:29;;;;;;;;;;;17.00;54.40;;;;;;4897850;29;20259;-58
2021/03/26 14:41:17;;;;;;;;;;;17.30;54.40;;;;;;4897840;29;20386;-58
2021/03/26 14:43:43;;;;;;;;;;;17.30;54.30;;;;;;4897880;29;20355;-57
2021/03/26 14:46:09;;;;;;;;;;;17.40;54.50;;;;;;4897827;29;20339;-57
2021/03/26 14:48:38;;;;;;;;;;;17.30;54.50;;;;;;4897966;29;19907;-57
2021/03/26 14:51:10;;;;;;;;;;;17.20;54.50;;;;;;4880557;29;19915;-57